sensor_id;sensor_type;location;lat;lon;timestamp;temperature;humidity
12901;DHT22;6518;50.930;5.344;2022-09-02T00:00:52;20.80;50.70
12901;DHT22;6518;50.930;5.344;2022-09-02T00:03:20;20.80;50.90
12901;DHT22;6518;50.930;5.344;2022-09-02T00:05:46;20.80;50.90
12901;DHT22;6518;50.930;5.344;2022-09-02T00:08:13;20.70;50.90
12901;DHT22;6518;50.930;5.344;2022-09-02T00:10:42;20.70;51.00
12901;DHT22;6518;50.930;5.344;2022-09-02T00:13:11;20.70;51.20
12901;DHT22;6518;50.930;5.344;2022-09-02T00:15:41;20.70;51.20
12901;DHT22;6518;50.930;5.344;2022-09-02T00:18:08;20.70;51.30
12901;DHT22;6518;50.930;5.344;2022-09-02T00:20:39;20.70;51.40
12901;DHT22;6518;50.930;5.344;2022-09-02T00:23:07;20.70;51.40
12901;DHT22;6518;50.930;5.344;2022-09-02T00:25:34;20.70;51.40
12901;DHT22;6518;50.930;5.344;2022-09-02T00:28:01;20.60;51.50
12901;DHT22;6518;50.930;5.344;2022-09-02T00:30:28;20.70;51.60
12901;DHT22;6518;50.930;5.344;2022-09-02T00:32:57;20.70;51.70
12901;DHT22;6518;50.930;5.344;2022-09-02T00:35:24;20.70;51.70
12901;DHT22;6518;50.930;5.344;2022-09-02T00:37:51;20.60;51.70
12901;DHT22;6518;50.930;5.344;2022-09-02T00:40:18;20.60;51.70
12901;DHT22;6518;50.930;5.344;2022-09-02T00:42:45;20.60;51.90
12901;DHT22;6518;50.930;5.344;2022-09-02T00:45:12;20.60;51.90
12901;DHT22;6518;50.930;5.344;2022-09-02T00:47:39;20.60;52.10
12901;DHT22;6518;50.930;5.344;2022-09-02T00:50:10;20.60;52.20
12901;DHT22;6518;50.930;5.344;2022-09-02T00:52:41;20.60;52.30
12901;DHT22;6518;50.930;5.344;2022-09-02T00:55:11;20.60;52.30
12901;DHT22;6518;50.930;5.344;2022-09-02T00:57:40;20.60;52.30
12901;DHT22;6518;50.930;5.344;2022-09-02T01:00:11;20.60;52.40
12901;DHT22;6518;50.930;5.344;2022-09-02T01:02:41;20.60;52.40
12901;DHT22;6518;50.930;5.344;2022-09-02T01:05:13;20.70;52.50
12901;DHT22;6518;50.930;5.344;2022-09-02T01:07:40;20.70;52.50
12901;DHT22;6518;50.930;5.344;2022-09-02T01:10:09;20.70;52.50
12901;DHT22;6518;50.930;5.344;2022-09-02T01:12:37;20.60;52.30
12901;DHT22;6518;50.930;5.344;2022-09-02T01:15:06;20.60;52.40
12901;DHT22;6518;50.930;5.344;2022-09-02T01:17:34;20.60;52.50
12901;DHT22;6518;50.930;5.344;2022-09-02T01:20:05;20.60;52.60
12901;DHT22;6518;50.930;5.344;2022-09-02T01:22:38;20.60;52.60
12901;DHT22;6518;50.930;5.344;2022-09-02T01:25:11;20.60;52.70
12901;DHT22;6518;50.930;5.344;2022-09-02T01:27:38;20.60;52.90
12901;DHT22;6518;50.930;5.344;2022-09-02T01:30:08;20.60;52.80
12901;DHT22;6518;50.930;5.344;2022-09-02T01:32:36;20.60;52.80
12901;DHT22;6518;50.930;5.344;2022-09-02T01:35:03;20.60;52.80
12901;DHT22;6518;50.930;5.344;2022-09-02T01:37:31;20.60;52.90
12901;DHT22;6518;50.930;5.344;2022-09-02T01:39:59;20.60;53.00
12901;DHT22;6518;50.930;5.344;2022-09-02T01:42:26;20.50;53.00
12901;DHT22;6518;50.930;5.344;2022-09-02T01:44:53;20.50;53.00
12901;DHT22;6518;50.930;5.344;2022-09-02T01:47:25;20.50;53.20
12901;DHT22;6518;50.930;5.344;2022-09-02T01:49:53;20.50;53.20
12901;DHT22;6518;50.930;5.344;2022-09-02T01:52:21;20.50;53.30
12901;DHT22;6518;50.930;5.344;2022-09-02T01:54:48;20.60;53.40
12901;DHT22;6518;50.930;5.344;2022-09-02T01:57:16;20.60;53.40
12901;DHT22;6518;50.930;5.344;2022-09-02T01:59:43;20.60;53.30
12901;DHT22;6518;50.930;5.344;2022-09-02T02:02:11;20.50;53.40
12901;DHT22;6518;50.930;5.344;2022-09-02T02:04:37;20.50;53.40
12901;DHT22;6518;50.930;5.344;2022-09-02T02:07:05;20.40;53.50
12901;DHT22;6518;50.930;5.344;2022-09-02T02:09:32;20.40;53.50
12901;DHT22;6518;50.930;5.344;2022-09-02T02:11:59;20.40;53.70
12901;DHT22;6518;50.930;5.344;2022-09-02T02:14:28;20.40;53.10
12901;DHT22;6518;50.930;5.344;2022-09-02T02:16:55;20.40;53.80
12901;DHT22;6518;50.930;5.344;2022-09-02T02:19:22;20.40;53.80
12901;DHT22;6518;50.930;5.344;2022-09-02T02:21:49;20.40;53.80
12901;DHT22;6518;50.930;5.344;2022-09-02T02:24:16;20.40;53.90
12901;DHT22;6518;50.930;5.344;2022-09-02T02:26:43;20.40;53.80
12901;DHT22;6518;50.930;5.344;2022-09-02T02:29:10;20.40;53.90
12901;DHT22;6518;50.930;5.344;2022-09-02T02:31:39;20.40;54.00
12901;DHT22;6518;50.930;5.344;2022-09-02T02:34:06;20.40;54.10
12901;DHT22;6518;50.930;5.344;2022-09-02T02:36:35;20.40;54.00
12901;DHT22;6518;50.930;5.344;2022-09-02T02:39:02;20.40;54.00
12901;DHT22;6518;50.930;5.344;2022-09-02T02:41:30;20.40;54.10
12901;DHT22;6518;50.930;5.344;2022-09-02T02:43:57;20.40;54.00
12901;DHT22;6518;50.930;5.344;2022-09-02T02:46:24;20.40;54.20
12901;DHT22;6518;50.930;5.344;2022-09-02T02:48:53;20.30;54.20
12901;DHT22;6518;50.930;5.344;2022-09-02T02:51:20;20.40;54.20
12901;DHT22;6518;50.930;5.344;2022-09-02T02:53:46;20.30;54.20
12901;DHT22;6518;50.930;5.344;2022-09-02T02:56:13;20.30;54.30
12901;DHT22;6518;50.930;5.344;2022-09-02T02:58:40;20.30;54.30
12901;DHT22;6518;50.930;5.344;2022-09-02T03:01:07;20.30;54.30
12901;DHT22;6518;50.930;5.344;2022-09-02T03:03:34;20.30;54.40
12901;DHT22;6518;50.930;5.344;2022-09-02T03:06:03;20.30;55.10
12901;DHT22;6518;50.930;5.344;2022-09-02T03:08:30;20.30;54.50
12901;DHT22;6518;50.930;5.344;2022-09-02T03:10:57;20.40;54.50
12901;DHT22;6518;50.930;5.344;2022-09-02T03:13:25;20.40;55.10
12901;DHT22;6518;50.930;5.344;2022-09-02T03:15:53;20.40;54.50
12901;DHT22;6518;50.930;5.344;2022-09-02T03:18:20;20.40;54.50
12901;DHT22;6518;50.930;5.344;2022-09-02T03:20:47;20.40;54.50
12901;DHT22;6518;50.930;5.344;2022-09-02T03:23:16;20.40;54.50
12901;DHT22;6518;50.930;5.344;2022-09-02T03:25:44;20.40;54.40
12901;DHT22;6518;50.930;5.344;2022-09-02T03:28:11;20.40;54.40
12901;DHT22;6518;50.930;5.344;2022-09-02T03:30:38;20.40;54.50
12901;DHT22;6518;50.930;5.344;2022-09-02T03:33:06;20.40;54.50
12901;DHT22;6518;50.930;5.344;2022-09-02T03:35:38;20.50;54.60
12901;DHT22;6518;50.930;5.344;2022-09-02T03:38:05;20.50;54.60
12901;DHT22;6518;50.930;5.344;2022-09-02T03:40:33;20.60;54.60
12901;DHT22;6518;50.930;5.344;2022-09-02T03:43:00;20.50;54.50
12901;DHT22;6518;50.930;5.344;2022-09-02T03:45:28;20.50;54.40
12901;DHT22;6518;50.930;5.344;2022-09-02T03:47:55;20.60;54.30
12901;DHT22;6518;50.930;5.344;2022-09-02T03:50:27;20.60;54.30
12901;DHT22;6518;50.930;5.344;2022-09-02T03:52:55;20.60;54.30
12901;DHT22;6518;50.930;5.344;2022-09-02T03:55:22;20.60;54.30
12901;DHT22;6518;50.930;5.344;2022-09-02T03:57:51;20.60;54.10
12901;DHT22;6518;50.930;5.344;2022-09-02T04:00:21;20.60;54.10
12901;DHT22;6518;50.930;5.344;2022-09-02T04:02:48;20.60;54.10
12901;DHT22;6518;50.930;5.344;2022-09-02T04:05:16;20.60;54.00
12901;DHT22;6518;50.930;5.344;2022-09-02T04:07:42;20.60;53.90
12901;DHT22;6518;50.930;5.344;2022-09-02T04:10:10;20.60;54.00
12901;DHT22;6518;50.930;5.344;2022-09-02T04:12:38;20.60;53.90
12901;DHT22;6518;50.930;5.344;2022-09-02T04:15:08;20.60;53.90
12901;DHT22;6518;50.930;5.344;2022-09-02T04:17:36;20.60;53.90
12901;DHT22;6518;50.930;5.344;2022-09-02T04:20:05;20.60;53.90
12901;DHT22;6518;50.930;5.344;2022-09-02T04:22:33;20.60;53.90
12901;DHT22;6518;50.930;5.344;2022-09-02T04:25:00;20.60;53.90
12901;DHT22;6518;50.930;5.344;2022-09-02T04:27:27;20.60;53.80
12901;DHT22;6518;50.930;5.344;2022-09-02T04:29:55;20.60;53.80
12901;DHT22;6518;50.930;5.344;2022-09-02T04:32:23;20.50;53.80
12901;DHT22;6518;50.930;5.344;2022-09-02T04:34:51;20.60;53.80
12901;DHT22;6518;50.930;5.344;2022-09-02T04:37:17;20.60;53.70
12901;DHT22;6518;50.930;5.344;2022-09-02T04:39:44;20.60;53.80
12901;DHT22;6518;50.930;5.344;2022-09-02T04:42:11;20.50;53.80
12901;DHT22;6518;50.930;5.344;2022-09-02T04:44:38;20.60;53.80
12901;DHT22;6518;50.930;5.344;2022-09-02T04:47:05;20.60;53.80
12901;DHT22;6518;50.930;5.344;2022-09-02T04:49:33;20.50;53.80
12901;DHT22;6518;50.930;5.344;2022-09-02T04:52:00;20.50;53.80
12901;DHT22;6518;50.930;5.344;2022-09-02T04:54:27;20.50;53.80
12901;DHT22;6518;50.930;5.344;2022-09-02T04:56:54;20.50;53.80
12901;DHT22;6518;50.930;5.344;2022-09-02T04:59:21;20.60;53.90
12901;DHT22;6518;50.930;5.344;2022-09-02T05:01:48;20.50;53.90
12901;DHT22;6518;50.930;5.344;2022-09-02T05:04:15;20.60;53.90
12901;DHT22;6518;50.930;5.344;2022-09-02T05:06:43;20.50;53.90
12901;DHT22;6518;50.930;5.344;2022-09-02T05:09:11;20.50;53.90
12901;DHT22;6518;50.930;5.344;2022-09-02T05:11:38;20.50;54.00
12901;DHT22;6518;50.930;5.344;2022-09-02T05:14:06;20.50;54.00
12901;DHT22;6518;50.930;5.344;2022-09-02T05:16:35;20.50;54.00
12901;DHT22;6518;50.930;5.344;2022-09-02T05:19:04;20.60;54.10
12901;DHT22;6518;50.930;5.344;2022-09-02T05:21:31;20.50;54.00
12901;DHT22;6518;50.930;5.344;2022-09-02T05:23:59;20.50;54.10
12901;DHT22;6518;50.930;5.344;2022-09-02T05:26:26;20.60;54.10
12901;DHT22;6518;50.930;5.344;2022-09-02T05:28:53;20.50;54.00
12901;DHT22;6518;50.930;5.344;2022-09-02T05:31:20;20.50;54.00
12901;DHT22;6518;50.930;5.344;2022-09-02T05:33:47;20.60;54.10
12901;DHT22;6518;50.930;5.344;2022-09-02T05:36:16;20.60;54.10
12901;DHT22;6518;50.930;5.344;2022-09-02T05:38:43;20.60;54.70
12901;DHT22;6518;50.930;5.344;2022-09-02T05:41:14;20.60;54.10
12901;DHT22;6518;50.930;5.344;2022-09-02T05:43:43;20.60;54.20
12901;DHT22;6518;50.930;5.344;2022-09-02T05:46:12;20.60;54.10
12901;DHT22;6518;50.930;5.344;2022-09-02T05:48:42;20.60;54.10
12901;DHT22;6518;50.930;5.344;2022-09-02T05:51:27;20.60;54.10
12901;DHT22;6518;50.930;5.344;2022-09-02T05:53:56;20.70;54.20
12901;DHT22;6518;50.930;5.344;2022-09-02T05:56:25;20.70;54.10
12901;DHT22;6518;50.930;5.344;2022-09-02T05:58:53;20.70;54.00
12901;DHT22;6518;50.930;5.344;2022-09-02T06:01:21;20.80;54.10
12901;DHT22;6518;50.930;5.344;2022-09-02T06:03:48;20.80;54.00
12901;DHT22;6518;50.930;5.344;2022-09-02T06:06:17;20.80;54.00
12901;DHT22;6518;50.930;5.344;2022-09-02T06:08:44;20.80;54.10
12901;DHT22;6518;50.930;5.344;2022-09-02T06:11:12;20.80;54.10
12901;DHT22;6518;50.930;5.344;2022-09-02T06:13:41;20.80;54.00
12901;DHT22;6518;50.930;5.344;2022-09-02T06:16:11;20.80;54.00
12901;DHT22;6518;50.930;5.344;2022-09-02T06:18:38;20.90;54.00
12901;DHT22;6518;50.930;5.344;2022-09-02T06:21:05;20.90;53.90
12901;DHT22;6518;50.930;5.344;2022-09-02T06:23:33;20.90;53.90
12901;DHT22;6518;50.930;5.344;2022-09-02T06:26:00;20.90;54.00
12901;DHT22;6518;50.930;5.344;2022-09-02T06:28:27;20.90;54.00
12901;DHT22;6518;50.930;5.344;2022-09-02T06:30:56;20.90;54.00
12901;DHT22;6518;50.930;5.344;2022-09-02T06:33:23;20.80;54.00
12901;DHT22;6518;50.930;5.344;2022-09-02T06:35:49;21.00;54.10
12901;DHT22;6518;50.930;5.344;2022-09-02T06:38:17;21.00;54.10
12901;DHT22;6518;50.930;5.344;2022-09-02T06:40:46;21.00;54.10
12901;DHT22;6518;50.930;5.344;2022-09-02T06:43:13;21.00;54.10
12901;DHT22;6518;50.930;5.344;2022-09-02T06:45:41;21.10;54.10
12901;DHT22;6518;50.930;5.344;2022-09-02T06:48:10;21.10;53.90
12901;DHT22;6518;50.930;5.344;2022-09-02T06:50:38;21.20;54.00
12901;DHT22;6518;50.930;5.344;2022-09-02T06:53:05;21.20;54.00
12901;DHT22;6518;50.930;5.344;2022-09-02T06:55:35;21.20;53.90
12901;DHT22;6518;50.930;5.344;2022-09-02T06:58:02;21.30;54.00
12901;DHT22;6518;50.930;5.344;2022-09-02T07:00:29;21.30;54.00
12901;DHT22;6518;50.930;5.344;2022-09-02T07:02:57;21.30;53.90
12901;DHT22;6518;50.930;5.344;2022-09-02T07:05:42;21.30;53.90
12901;DHT22;6518;50.930;5.344;2022-09-02T07:08:09;21.40;54.10
12901;DHT22;6518;50.930;5.344;2022-09-02T07:10:37;21.40;54.10
12901;DHT22;6518;50.930;5.344;2022-09-02T07:13:05;21.40;54.20
12901;DHT22;6518;50.930;5.344;2022-09-02T07:15:33;21.40;55.00
12901;DHT22;6518;50.930;5.344;2022-09-02T07:18:00;21.50;54.40
12901;DHT22;6518;50.930;5.344;2022-09-02T07:20:28;21.50;54.40
12901;DHT22;6518;50.930;5.344;2022-09-02T07:22:56;21.60;54.40
12901;DHT22;6518;50.930;5.344;2022-09-02T07:25:24;21.60;54.50
12901;DHT22;6518;50.930;5.344;2022-09-02T07:27:50;21.60;54.50
12901;DHT22;6518;50.930;5.344;2022-09-02T07:30:17;21.60;54.50
12901;DHT22;6518;50.930;5.344;2022-09-02T07:32:44;21.70;54.40
12901;DHT22;6518;50.930;5.344;2022-09-02T07:35:11;21.70;54.40
12901;DHT22;6518;50.930;5.344;2022-09-02T07:37:38;21.80;54.50
12901;DHT22;6518;50.930;5.344;2022-09-02T07:40:08;21.90;54.50
12901;DHT22;6518;50.930;5.344;2022-09-02T07:42:36;21.90;54.40
12901;DHT22;6518;50.930;5.344;2022-09-02T07:45:03;22.10;54.40
12901;DHT22;6518;50.930;5.344;2022-09-02T07:47:31;22.20;54.20
12901;DHT22;6518;50.930;5.344;2022-09-02T07:49:58;22.30;54.00
12901;DHT22;6518;50.930;5.344;2022-09-02T07:52:25;22.30;53.90
12901;DHT22;6518;50.930;5.344;2022-09-02T07:54:52;22.40;53.80
12901;DHT22;6518;50.930;5.344;2022-09-02T07:57:20;22.50;53.60
12901;DHT22;6518;50.930;5.344;2022-09-02T07:59:47;22.60;53.50
12901;DHT22;6518;50.930;5.344;2022-09-02T08:02:14;22.70;53.40
12901;DHT22;6518;50.930;5.344;2022-09-02T08:04:42;22.80;53.20
12901;DHT22;6518;50.930;5.344;2022-09-02T08:07:10;22.80;53.00
12901;DHT22;6518;50.930;5.344;2022-09-02T08:09:37;22.90;52.90
12901;DHT22;6518;50.930;5.344;2022-09-02T08:12:04;23.10;52.80
12901;DHT22;6518;50.930;5.344;2022-09-02T08:14:33;23.20;52.60
12901;DHT22;6518;50.930;5.344;2022-09-02T08:17:00;23.30;52.30
12901;DHT22;6518;50.930;5.344;2022-09-02T08:19:27;23.30;52.10
12901;DHT22;6518;50.930;5.344;2022-09-02T08:21:54;23.30;51.90
12901;DHT22;6518;50.930;5.344;2022-09-02T08:24:21;23.40;51.90
12901;DHT22;6518;50.930;5.344;2022-09-02T08:26:48;23.50;51.80
12901;DHT22;6518;50.930;5.344;2022-09-02T08:29:15;23.50;51.80
12901;DHT22;6518;50.930;5.344;2022-09-02T08:31:43;23.60;51.70
12901;DHT22;6518;50.930;5.344;2022-09-02T08:34:10;23.60;51.50
12901;DHT22;6518;50.930;5.344;2022-09-02T08:36:37;23.60;51.40
12901;DHT22;6518;50.930;5.344;2022-09-02T08:39:08;23.60;51.20
12901;DHT22;6518;50.930;5.344;2022-09-02T08:41:43;23.70;51.20
12901;DHT22;6518;50.930;5.344;2022-09-02T08:44:18;23.70;51.00
12901;DHT22;6518;50.930;5.344;2022-09-02T08:46:49;23.80;50.90
12901;DHT22;6518;50.930;5.344;2022-09-02T08:49:23;23.80;50.90
12901;DHT22;6518;50.930;5.344;2022-09-02T08:51:52;23.80;50.90
12901;DHT22;6518;50.930;5.344;2022-09-02T08:54:26;23.80;50.90
12901;DHT22;6518;50.930;5.344;2022-09-02T08:56:56;23.90;50.80
12901;DHT22;6518;50.930;5.344;2022-09-02T08:59:25;23.90;50.60
12901;DHT22;6518;50.930;5.344;2022-09-02T09:02:00;23.90;50.60
12901;DHT22;6518;50.930;5.344;2022-09-02T09:04:42;24.10;50.70
12901;DHT22;6518;50.930;5.344;2022-09-02T09:07:21;24.10;50.80
12901;DHT22;6518;50.930;5.344;2022-09-02T09:10:02;24.20;50.50
12901;DHT22;6518;50.930;5.344;2022-09-02T09:12:43;24.20;50.40
12901;DHT22;6518;50.930;5.344;2022-09-02T09:15:20;24.30;50.10
12901;DHT22;6518;50.930;5.344;2022-09-02T09:17:53;24.30;50.00
12901;DHT22;6518;50.930;5.344;2022-09-02T09:20:25;24.40;50.10
12901;DHT22;6518;50.930;5.344;2022-09-02T09:22:56;24.40;49.90
12901;DHT22;6518;50.930;5.344;2022-09-02T09:25:23;24.50;49.60
12901;DHT22;6518;50.930;5.344;2022-09-02T09:27:54;24.60;49.50
12901;DHT22;6518;50.930;5.344;2022-09-02T09:30:22;24.70;49.50
12901;DHT22;6518;50.930;5.344;2022-09-02T09:32:52;24.70;49.30
12901;DHT22;6518;50.930;5.344;2022-09-02T09:35:20;24.80;49.10
12901;DHT22;6518;50.930;5.344;2022-09-02T09:37:48;24.90;48.70
12901;DHT22;6518;50.930;5.344;2022-09-02T09:40:26;25.00;48.40
12901;DHT22;6518;50.930;5.344;2022-09-02T09:42:56;25.10;48.20
12901;DHT22;6518;50.930;5.344;2022-09-02T09:45:29;25.20;48.10
12901;DHT22;6518;50.930;5.344;2022-09-02T09:48:12;25.30;47.90
12901;DHT22;6518;50.930;5.344;2022-09-02T09:50:40;25.40;48.00
12901;DHT22;6518;50.930;5.344;2022-09-02T09:53:18;25.40;47.90
12901;DHT22;6518;50.930;5.344;2022-09-02T09:55:53;25.40;47.70
12901;DHT22;6518;50.930;5.344;2022-09-02T09:58:21;25.50;47.60
12901;DHT22;6518;50.930;5.344;2022-09-02T10:00:50;25.40;47.50
12901;DHT22;6518;50.930;5.344;2022-09-02T10:03:27;25.40;47.40
12901;DHT22;6518;50.930;5.344;2022-09-02T10:05:57;25.40;47.60
12901;DHT22;6518;50.930;5.344;2022-09-02T10:08:26;25.40;47.40
12901;DHT22;6518;50.930;5.344;2022-09-02T10:10:59;25.40;47.50
12901;DHT22;6518;50.930;5.344;2022-09-02T10:13:29;25.50;47.50
12901;DHT22;6518;50.930;5.344;2022-09-02T10:16:10;25.50;47.30
12901;DHT22;6518;50.930;5.344;2022-09-02T10:18:47;25.60;46.60
12901;DHT22;6518;50.930;5.344;2022-09-02T10:21:27;25.60;45.70
12901;DHT22;6518;50.930;5.344;2022-09-02T10:24:03;25.70;45.60
12901;DHT22;6518;50.930;5.344;2022-09-02T10:26:37;25.70;45.40
12901;DHT22;6518;50.930;5.344;2022-09-02T10:32:30;25.90;44.40
12901;DHT22;6518;50.930;5.344;2022-09-02T10:35:08;25.90;44.00
12901;DHT22;6518;50.930;5.344;2022-09-02T10:37:42;25.90;43.80
12901;DHT22;6518;50.930;5.344;2022-09-02T10:40:18;25.90;43.60
12901;DHT22;6518;50.930;5.344;2022-09-02T10:42:59;25.90;43.10
12901;DHT22;6518;50.930;5.344;2022-09-02T10:45:33;25.90;42.70
12901;DHT22;6518;50.930;5.344;2022-09-02T10:48:24;25.90;42.40
12901;DHT22;6518;50.930;5.344;2022-09-02T10:51:01;25.90;41.40
12901;DHT22;6518;50.930;5.344;2022-09-02T10:53:46;25.90;42.00
12901;DHT22;6518;50.930;5.344;2022-09-02T10:56:19;25.90;41.70
12901;DHT22;6518;50.930;5.344;2022-09-02T10:58:52;26.00;41.70
12901;DHT22;6518;50.930;5.344;2022-09-02T11:01:22;26.10;41.50
12901;DHT22;6518;50.930;5.344;2022-09-02T11:04:02;26.30;41.50
12901;DHT22;6518;50.930;5.344;2022-09-02T11:06:35;26.40;41.20
12901;DHT22;6518;50.930;5.344;2022-09-02T11:09:08;26.50;40.60
12901;DHT22;6518;50.930;5.344;2022-09-02T11:11:40;26.50;40.30
12901;DHT22;6518;50.930;5.344;2022-09-02T11:14:16;26.50;40.40
12901;DHT22;6518;50.930;5.344;2022-09-02T11:16:49;26.60;40.30
12901;DHT22;6518;50.930;5.344;2022-09-02T11:19:20;26.60;40.20
12901;DHT22;6518;50.930;5.344;2022-09-02T11:21:56;26.70;40.20
12901;DHT22;6518;50.930;5.344;2022-09-02T11:24:30;26.80;40.00
12901;DHT22;6518;50.930;5.344;2022-09-02T11:27:04;26.80;39.60
12901;DHT22;6518;50.930;5.344;2022-09-02T11:29:39;26.90;39.60
12901;DHT22;6518;50.930;5.344;2022-09-02T11:32:16;26.90;39.70
12901;DHT22;6518;50.930;5.344;2022-09-02T11:34:46;26.90;39.60
12901;DHT22;6518;50.930;5.344;2022-09-02T11:37:28;27.00;39.70
12901;DHT22;6518;50.930;5.344;2022-09-02T11:39:59;27.00;39.40
12901;DHT22;6518;50.930;5.344;2022-09-02T11:42:38;27.10;39.50
12901;DHT22;6518;50.930;5.344;2022-09-02T11:45:54;27.10;39.40
12901;DHT22;6518;50.930;5.344;2022-09-02T11:48:46;27.10;39.00
12901;DHT22;6518;50.930;5.344;2022-09-02T11:51:34;27.20;39.20
12901;DHT22;6518;50.930;5.344;2022-09-02T11:54:12;27.20;39.00
12901;DHT22;6518;50.930;5.344;2022-09-02T11:56:42;27.20;38.90
12901;DHT22;6518;50.930;5.344;2022-09-02T11:59:19;27.20;38.90
12901;DHT22;6518;50.930;5.344;2022-09-02T12:01:49;27.30;39.10
12901;DHT22;6518;50.930;5.344;2022-09-02T12:04:21;27.30;39.10
12901;DHT22;6518;50.930;5.344;2022-09-02T12:07:21;27.30;38.80
12901;DHT22;6518;50.930;5.344;2022-09-02T12:09:51;27.30;38.60
12901;DHT22;6518;50.930;5.344;2022-09-02T12:15:20;27.30;39.00
12901;DHT22;6518;50.930;5.344;2022-09-02T12:18:12;27.30;39.30
12901;DHT22;6518;50.930;5.344;2022-09-02T12:21:08;27.40;39.40
12901;DHT22;6518;50.930;5.344;2022-09-02T12:24:10;27.40;39.50
12901;DHT22;6518;50.930;5.344;2022-09-02T12:27:17;27.40;39.50
12901;DHT22;6518;50.930;5.344;2022-09-02T12:29:44;27.40;39.50
12901;DHT22;6518;50.930;5.344;2022-09-02T12:32:11;27.40;39.80
12901;DHT22;6518;50.930;5.344;2022-09-02T12:34:55;27.40;39.90
12901;DHT22;6518;50.930;5.344;2022-09-02T12:37:54;27.30;39.60
12901;DHT22;6518;50.930;5.344;2022-09-02T12:40:33;27.30;39.50
12901;DHT22;6518;50.930;5.344;2022-09-02T12:43:17;27.20;39.70
12901;DHT22;6518;50.930;5.344;2022-09-02T12:45:46;27.20;39.70
12901;DHT22;6518;50.930;5.344;2022-09-02T12:48:16;27.30;39.60
12901;DHT22;6518;50.930;5.344;2022-09-02T12:50:53;27.30;39.00
12901;DHT22;6518;50.930;5.344;2022-09-02T12:53:28;27.30;38.90
12901;DHT22;6518;50.930;5.344;2022-09-02T12:55:58;27.40;39.00
12901;DHT22;6518;50.930;5.344;2022-09-02T12:58:33;27.40;39.10
12901;DHT22;6518;50.930;5.344;2022-09-02T13:01:09;27.50;38.80
12901;DHT22;6518;50.930;5.344;2022-09-02T13:03:50;27.50;38.80
12901;DHT22;6518;50.930;5.344;2022-09-02T13:06:26;27.50;38.70
12901;DHT22;6518;50.930;5.344;2022-09-02T13:09:19;27.60;38.90
12901;DHT22;6518;50.930;5.344;2022-09-02T13:15:22;27.60;38.60
12901;DHT22;6518;50.930;5.344;2022-09-02T13:21:02;27.50;38.50
12901;DHT22;6518;50.930;5.344;2022-09-02T13:26:52;27.30;38.60
12901;DHT22;6518;50.930;5.344;2022-09-02T13:29:56;27.30;38.70
12901;DHT22;6518;50.930;5.344;2022-09-02T13:32:30;27.30;38.60
12901;DHT22;6518;50.930;5.344;2022-09-02T13:35:00;27.30;38.50
12901;DHT22;6518;50.930;5.344;2022-09-02T13:37:30;27.40;38.40
12901;DHT22;6518;50.930;5.344;2022-09-02T13:40:00;27.40;38.20
12901;DHT22;6518;50.930;5.344;2022-09-02T13:42:28;27.50;38.20
12901;DHT22;6518;50.930;5.344;2022-09-02T13:45:09;27.50;37.90
12901;DHT22;6518;50.930;5.344;2022-09-02T13:47:40;27.60;38.20
12901;DHT22;6518;50.930;5.344;2022-09-02T13:50:09;27.70;38.20
12901;DHT22;6518;50.930;5.344;2022-09-02T13:52:39;27.80;38.10
12901;DHT22;6518;50.930;5.344;2022-09-02T13:55:10;27.80;37.80
12901;DHT22;6518;50.930;5.344;2022-09-02T13:57:43;27.90;38.40
12901;DHT22;6518;50.930;5.344;2022-09-02T14:00:13;27.90;37.60
12901;DHT22;6518;50.930;5.344;2022-09-02T14:02:54;27.90;37.40
12901;DHT22;6518;50.930;5.344;2022-09-02T14:05:22;27.90;37.50
12901;DHT22;6518;50.930;5.344;2022-09-02T14:07:52;28.00;37.50
12901;DHT22;6518;50.930;5.344;2022-09-02T14:10:22;28.00;37.30
12901;DHT22;6518;50.930;5.344;2022-09-02T14:12:51;28.00;37.40
12901;DHT22;6518;50.930;5.344;2022-09-02T14:15:23;28.10;37.50
12901;DHT22;6518;50.930;5.344;2022-09-02T14:18:07;28.10;37.50
12901;DHT22;6518;50.930;5.344;2022-09-02T14:20:35;28.10;37.00
12901;DHT22;6518;50.930;5.344;2022-09-02T14:23:02;28.10;37.20
12901;DHT22;6518;50.930;5.344;2022-09-02T14:25:35;28.10;37.30
12901;DHT22;6518;50.930;5.344;2022-09-02T14:28:07;28.10;37.30
12901;DHT22;6518;50.930;5.344;2022-09-02T14:30:39;28.10;37.30
12901;DHT22;6518;50.930;5.344;2022-09-02T14:33:25;28.10;37.20
12901;DHT22;6518;50.930;5.344;2022-09-02T14:36:00;28.20;37.20
12901;DHT22;6518;50.930;5.344;2022-09-02T14:38:29;28.20;37.20
12901;DHT22;6518;50.930;5.344;2022-09-02T14:41:02;28.20;37.20
12901;DHT22;6518;50.930;5.344;2022-09-02T14:43:39;28.20;37.00
12901;DHT22;6518;50.930;5.344;2022-09-02T14:46:14;28.20;37.00
12901;DHT22;6518;50.930;5.344;2022-09-02T14:48:43;28.20;37.00
12901;DHT22;6518;50.930;5.344;2022-09-02T14:51:17;28.20;37.00
12901;DHT22;6518;50.930;5.344;2022-09-02T14:53:44;28.20;37.10
12901;DHT22;6518;50.930;5.344;2022-09-02T14:56:11;28.20;37.00
12901;DHT22;6518;50.930;5.344;2022-09-02T14:58:38;28.20;36.90
12901;DHT22;6518;50.930;5.344;2022-09-02T15:01:05;28.20;36.80
12901;DHT22;6518;50.930;5.344;2022-09-02T15:03:36;28.20;36.90
12901;DHT22;6518;50.930;5.344;2022-09-02T15:06:05;28.10;36.90
12901;DHT22;6518;50.930;5.344;2022-09-02T15:08:32;28.10;36.70
12901;DHT22;6518;50.930;5.344;2022-09-02T15:10:59;28.10;36.90
12901;DHT22;6518;50.930;5.344;2022-09-02T15:13:29;28.10;37.00
12901;DHT22;6518;50.930;5.344;2022-09-02T15:15:58;28.20;37.00
12901;DHT22;6518;50.930;5.344;2022-09-02T15:18:25;28.20;37.00
12901;DHT22;6518;50.930;5.344;2022-09-02T15:20:52;28.20;37.00
12901;DHT22;6518;50.930;5.344;2022-09-02T15:23:20;28.30;37.00
12901;DHT22;6518;50.930;5.344;2022-09-02T15:25:47;28.30;36.90
12901;DHT22;6518;50.930;5.344;2022-09-02T15:28:14;28.30;36.80
12901;DHT22;6518;50.930;5.344;2022-09-02T15:30:41;28.30;36.80
12901;DHT22;6518;50.930;5.344;2022-09-02T15:33:08;28.30;36.70
12901;DHT22;6518;50.930;5.344;2022-09-02T15:35:35;28.30;36.80
12901;DHT22;6518;50.930;5.344;2022-09-02T15:38:02;28.30;36.80
12901;DHT22;6518;50.930;5.344;2022-09-02T15:40:31;28.30;36.80
12901;DHT22;6518;50.930;5.344;2022-09-02T15:42:58;28.30;36.80
12901;DHT22;6518;50.930;5.344;2022-09-02T15:45:26;28.30;36.70
12901;DHT22;6518;50.930;5.344;2022-09-02T15:47:56;28.30;36.70
12901;DHT22;6518;50.930;5.344;2022-09-02T15:50:24;28.30;36.60
12901;DHT22;6518;50.930;5.344;2022-09-02T15:52:51;28.20;36.50
12901;DHT22;6518;50.930;5.344;2022-09-02T15:55:18;28.20;36.50
12901;DHT22;6518;50.930;5.344;2022-09-02T15:57:46;28.20;36.60
12901;DHT22;6518;50.930;5.344;2022-09-02T16:00:14;28.20;36.70
12901;DHT22;6518;50.930;5.344;2022-09-02T16:02:41;28.20;36.70
12901;DHT22;6518;50.930;5.344;2022-09-02T16:05:08;28.20;36.60
12901;DHT22;6518;50.930;5.344;2022-09-02T16:07:38;28.20;36.60
12901;DHT22;6518;50.930;5.344;2022-09-02T16:10:06;28.20;36.60
12901;DHT22;6518;50.930;5.344;2022-09-02T16:12:33;28.20;36.50
12901;DHT22;6518;50.930;5.344;2022-09-02T16:15:02;28.10;36.50
12901;DHT22;6518;50.930;5.344;2022-09-02T16:17:28;28.10;36.50
12901;DHT22;6518;50.930;5.344;2022-09-02T16:19:55;28.10;36.50
12901;DHT22;6518;50.930;5.344;2022-09-02T16:22:23;28.10;36.50